sensor_id;sensor_type;location;lat;lon;timestamp;P1;durP1;ratioP1;P2;durP2;ratioP2
55037;SDS011;40937;53.594;10.034;2022-10-30T00:02:15;24.92;;;16.63;;
55037;SDS011;40937;53.594;10.034;2022-10-30T00:04:41;20.08;;;15.52;;
55037;SDS011;40937;53.594;10.034;2022-10-30T00:07:09;31.40;;;17.10;;
55037;SDS011;40937;53.594;10.034;2022-10-30T00:09:35;20.00;;;16.52;;
55037;SDS011;40937;53.594;10.034;2022-10-30T00:12:02;25.38;;;16.58;;
55037;SDS011;40937;53.594;10.034;2022-10-30T00:14:29;19.95;;;16.23;;
55037;SDS011;40937;53.594;10.034;2022-10-30T00:16:56;22.58;;;15.00;;
55037;SDS011;40937;53.594;10.034;2022-10-30T00:19:22;22.90;;;16.00;;
55037;SDS011;40937;53.594;10.034;2022-10-30T00:21:49;23.30;;;16.73;;
55037;SDS011;40937;53.594;10.034;2022-10-30T00:24:17;24.27;;;15.13;;
55037;SDS011;40937;53.594;10.034;2022-10-30T00:26:44;24.92;;;16.13;;
55037;SDS011;40937;53.594;10.034;2022-10-30T00:29:10;27.27;;;16.23;;
55037;SDS011;40937;53.594;10.034;2022-10-30T00:31:37;20.35;;;14.57;;
55037;SDS011;40937;53.594;10.034;2022-10-30T00:34:03;29.95;;;16.17;;
55037;SDS011;40937;53.594;10.034;2022-10-30T00:36:30;22.45;;;15.38;;
55037;SDS011;40937;53.594;10.034;2022-10-30T00:38:56;24.20;;;15.75;;
55037;SDS011;40937;53.594;10.034;2022-10-30T00:41:24;31.45;;;16.30;;
55037;SDS011;40937;53.594;10.034;2022-10-30T00:43:53;21.98;;;14.75;;
55037;SDS011;40937;53.594;10.034;2022-10-30T00:46:22;23.58;;;15.95;;
55037;SDS011;40937;53.594;10.034;2022-10-30T00:48:53;22.33;;;15.65;;
55037;SDS011;40937;53.594;10.034;2022-10-30T00:51:23;27.98;;;16.05;;
55037;SDS011;40937;53.594;10.034;2022-10-30T00:53:50;21.15;;;14.55;;
55037;SDS011;40937;53.594;10.034;2022-10-30T00:56:18;22.33;;;15.68;;
55037;SDS011;40937;53.594;10.034;2022-10-30T00:58:51;22.52;;;15.75;;
55037;SDS011;40937;53.594;10.034;2022-10-30T01:01:23;21.75;;;15.23;;
55037;SDS011;40937;53.594;10.034;2022-10-30T01:03:52;22.20;;;15.57;;
55037;SDS011;40937;53.594;10.034;2022-10-30T01:06:21;25.60;;;15.25;;
55037;SDS011;40937;53.594;10.034;2022-10-30T01:08:48;19.67;;;14.23;;
55037;SDS011;40937;53.594;10.034;2022-10-30T01:11:16;35.75;;;15.98;;
55037;SDS011;40937;53.594;10.034;2022-10-30T01:13:43;23.70;;;15.32;;
55037;SDS011;40937;53.594;10.034;2022-10-30T01:19:16;24.02;;;15.20;;
55037;SDS011;40937;53.594;10.034;2022-10-30T01:21:50;26.55;;;16.23;;
55037;SDS011;40937;53.594;10.034;2022-10-30T01:24:30;25.15;;;14.85;;
55037;SDS011;40937;53.594;10.034;2022-10-30T01:27:11;22.13;;;14.82;;
55037;SDS011;40937;53.594;10.034;2022-10-30T01:29:47;19.05;;;14.48;;
55037;SDS011;40937;53.594;10.034;2022-10-30T01:32:28;23.35;;;15.05;;
55037;SDS011;40937;53.594;10.034;2022-10-30T01:35:08;26.55;;;15.13;;
55037;SDS011;40937;53.594;10.034;2022-10-30T01:37:41;21.88;;;15.57;;
55037;SDS011;40937;53.594;10.034;2022-10-30T01:40:16;24.38;;;15.63;;
55037;SDS011;40937;53.594;10.034;2022-10-30T01:42:45;22.70;;;15.57;;
55037;SDS011;40937;53.594;10.034;2022-10-30T01:45:20;23.05;;;14.82;;
55037;SDS011;40937;53.594;10.034;2022-10-30T01:47:57;18.30;;;13.45;;
55037;SDS011;40937;53.594;10.034;2022-10-30T01:53:22;22.60;;;14.35;;
55037;SDS011;40937;53.594;10.034;2022-10-30T01:56:04;28.17;;;13.82;;
55037;SDS011;40937;53.594;10.034;2022-10-30T01:58:43;17.60;;;13.68;;
55037;SDS011;40937;53.594;10.034;2022-10-30T02:01:16;20.45;;;13.95;;
55037;SDS011;40937;53.594;10.034;2022-10-30T02:03:46;25.55;;;13.63;;
55037;SDS011;40937;53.594;10.034;2022-10-30T02:06:13;19.88;;;13.70;;
55037;SDS011;40937;53.594;10.034;2022-10-30T02:08:39;20.45;;;13.50;;
55037;SDS011;40937;53.594;10.034;2022-10-30T02:11:07;23.52;;;14.15;;
55037;SDS011;40937;53.594;10.034;2022-10-30T02:13:39;20.98;;;15.10;;
55037;SDS011;40937;53.594;10.034;2022-10-30T02:16:07;21.55;;;14.38;;
55037;SDS011;40937;53.594;10.034;2022-10-30T02:18:34;21.02;;;15.25;;
55037;SDS011;40937;53.594;10.034;2022-10-30T02:21:03;25.45;;;14.52;;
55037;SDS011;40937;53.594;10.034;2022-10-30T02:23:30;19.70;;;14.20;;
55037;SDS011;40937;53.594;10.034;2022-10-30T02:25:57;18.27;;;13.43;;
55037;SDS011;40937;53.594;10.034;2022-10-30T02:28:26;17.83;;;12.77;;
55037;SDS011;40937;53.594;10.034;2022-10-30T02:30:53;20.10;;;13.50;;
55037;SDS011;40937;53.594;10.034;2022-10-30T02:33:19;18.30;;;13.38;;
55037;SDS011;40937;53.594;10.034;2022-10-30T02:35:48;17.63;;;13.02;;
55037;SDS011;40937;53.594;10.034;2022-10-30T02:38:16;18.92;;;12.65;;
55037;SDS011;40937;53.594;10.034;2022-10-30T02:40:43;18.58;;;13.30;;
55037;SDS011;40937;53.594;10.034;2022-10-30T02:43:10;19.45;;;13.38;;
55037;SDS011;40937;53.594;10.034;2022-10-30T02:45:36;15.15;;;12.05;;
55037;SDS011;40937;53.594;10.034;2022-10-30T02:48:03;21.48;;;12.73;;
55037;SDS011;40937;53.594;10.034;2022-10-30T02:50:30;20.90;;;13.93;;
55037;SDS011;40937;53.594;10.034;2022-10-30T02:52:57;14.60;;;11.90;;
55037;SDS011;40937;53.594;10.034;2022-10-30T02:55:25;26.05;;;12.95;;
55037;SDS011;40937;53.594;10.034;2022-10-30T02:57:52;14.82;;;12.88;;
55037;SDS011;40937;53.594;10.034;2022-10-30T03:00:19;16.30;;;11.93;;
55037;SDS011;40937;53.594;10.034;2022-10-30T03:02:46;23.75;;;12.18;;
55037;SDS011;40937;53.594;10.034;2022-10-30T03:05:13;19.60;;;13.25;;
55037;SDS011;40937;53.594;10.034;2022-10-30T03:07:39;14.98;;;11.93;;
55037;SDS011;40937;53.594;10.034;2022-10-30T03:10:06;19.45;;;12.93;;
55037;SDS011;40937;53.594;10.034;2022-10-30T03:12:35;17.63;;;13.10;;
55037;SDS011;40937;53.594;10.034;2022-10-30T03:15:02;18.90;;;12.48;;
55037;SDS011;40937;53.594;10.034;2022-10-30T03:17:29;17.52;;;12.25;;
55037;SDS011;40937;53.594;10.034;2022-10-30T03:19:56;20.75;;;12.65;;
55037;SDS011;40937;53.594;10.034;2022-10-30T03:22:22;13.57;;;12.10;;
55037;SDS011;40937;53.594;10.034;2022-10-30T03:24:49;24.10;;;13.02;;
55037;SDS011;40937;53.594;10.034;2022-10-30T03:27:16;19.67;;;12.18;;
55037;SDS011;40937;53.594;10.034;2022-10-30T03:29:44;20.95;;;12.00;;
55037;SDS011;40937;53.594;10.034;2022-10-30T03:32:11;15.00;;;11.63;;
55037;SDS011;40937;53.594;10.034;2022-10-30T03:34:45;15.60;;;11.95;;
55037;SDS011;40937;53.594;10.034;2022-10-30T03:37:11;22.10;;;12.55;;
55037;SDS011;40937;53.594;10.034;2022-10-30T03:39:38;18.88;;;12.43;;
55037;SDS011;40937;53.594;10.034;2022-10-30T03:42:04;14.85;;;12.25;;
55037;SDS011;40937;53.594;10.034;2022-10-30T03:44:31;13.55;;;11.70;;
55037;SDS011;40937;53.594;10.034;2022-10-30T03:46:59;15.23;;;10.65;;
55037;SDS011;40937;53.594;10.034;2022-10-30T03:49:30;15.63;;;11.20;;
55037;SDS011;40937;53.594;10.034;2022-10-30T03:51:58;18.30;;;12.38;;
55037;SDS011;40937;53.594;10.034;2022-10-30T03:54:25;15.07;;;11.88;;
55037;SDS011;40937;53.594;10.034;2022-10-30T03:56:52;15.95;;;11.57;;
55037;SDS011;40937;53.594;10.034;2022-10-30T03:59:20;17.77;;;11.75;;
55037;SDS011;40937;53.594;10.034;2022-10-30T04:02:14;15.33;;;11.77;;
55037;SDS011;40937;53.594;10.034;2022-10-30T04:04:41;19.60;;;12.43;;
55037;SDS011;40937;53.594;10.034;2022-10-30T04:07:07;18.50;;;11.57;;
55037;SDS011;40937;53.594;10.034;2022-10-30T04:09:34;19.55;;;11.13;;
55037;SDS011;40937;53.594;10.034;2022-10-30T04:12:00;14.55;;;11.60;;
55037;SDS011;40937;53.594;10.034;2022-10-30T04:14:27;14.77;;;12.75;;
55037;SDS011;40937;53.594;10.034;2022-10-30T04:16:54;19.67;;;12.05;;
55037;SDS011;40937;53.594;10.034;2022-10-30T04:19:21;18.05;;;11.77;;
55037;SDS011;40937;53.594;10.034;2022-10-30T04:21:48;20.75;;;12.60;;
55037;SDS011;40937;53.594;10.034;2022-10-30T04:24:16;19.73;;;12.13;;
55037;SDS011;40937;53.594;10.034;2022-10-30T04:26:46;25.98;;;11.90;;
55037;SDS011;40937;53.594;10.034;2022-10-30T04:29:12;20.55;;;11.60;;
55037;SDS011;40937;53.594;10.034;2022-10-30T04:31:39;16.67;;;11.82;;
55037;SDS011;40937;53.594;10.034;2022-10-30T04:34:06;26.70;;;11.85;;
55037;SDS011;40937;53.594;10.034;2022-10-30T04:36:34;21.75;;;11.90;;
55037;SDS011;40937;53.594;10.034;2022-10-30T04:39:00;19.65;;;12.25;;
55037;SDS011;40937;53.594;10.034;2022-10-30T04:41:27;19.55;;;11.52;;
55037;SDS011;40937;53.594;10.034;2022-10-30T04:44:02;19.00;;;11.73;;
55037;SDS011;40937;53.594;10.034;2022-10-30T04:46:30;12.50;;;11.35;;
55037;SDS011;40937;53.594;10.034;2022-10-30T04:49:05;20.85;;;11.88;;
55037;SDS011;40937;53.594;10.034;2022-10-30T04:51:31;15.80;;;11.27;;
55037;SDS011;40937;53.594;10.034;2022-10-30T04:54:00;17.75;;;11.43;;
55037;SDS011;40937;53.594;10.034;2022-10-30T04:56:29;17.73;;;11.50;;
55037;SDS011;40937;53.594;10.034;2022-10-30T04:58:57;20.20;;;11.63;;
55037;SDS011;40937;53.594;10.034;2022-10-30T05:01:24;16.70;;;11.32;;
55037;SDS011;40937;53.594;10.034;2022-10-30T05:03:50;20.15;;;11.30;;
55037;SDS011;40937;53.594;10.034;2022-10-30T05:06:19;18.27;;;11.05;;
55037;SDS011;40937;53.594;10.034;2022-10-30T05:08:49;15.48;;;11.50;;
55037;SDS011;40937;53.594;10.034;2022-10-30T05:11:26;13.73;;;11.07;;
55037;SDS011;40937;53.594;10.034;2022-10-30T05:13:52;23.58;;;11.15;;
55037;SDS011;40937;53.594;10.034;2022-10-30T05:16:19;18.80;;;11.02;;
55037;SDS011;40937;53.594;10.034;2022-10-30T05:18:46;22.40;;;11.70;;
55037;SDS011;40937;53.594;10.034;2022-10-30T05:21:12;17.38;;;10.93;;
55037;SDS011;40937;53.594;10.034;2022-10-30T05:23:39;19.60;;;11.73;;
55037;SDS011;40937;53.594;10.034;2022-10-30T05:26:07;11.73;;;10.55;;
55037;SDS011;40937;53.594;10.034;2022-10-30T05:28:35;12.85;;;11.55;;
55037;SDS011;40937;53.594;10.034;2022-10-30T05:31:03;17.65;;;11.43;;
55037;SDS011;40937;53.594;10.034;2022-10-30T05:33:48;15.77;;;10.70;;
55037;SDS011;40937;53.594;10.034;2022-10-30T05:36:15;17.98;;;11.18;;
55037;SDS011;40937;53.594;10.034;2022-10-30T05:38:42;17.88;;;11.40;;
55037;SDS011;40937;53.594;10.034;2022-10-30T05:41:19;18.00;;;11.05;;
55037;SDS011;40937;53.594;10.034;2022-10-30T05:43:46;20.70;;;11.75;;
55037;SDS011;40937;53.594;10.034;2022-10-30T05:46:12;23.67;;;11.30;;
55037;SDS011;40937;53.594;10.034;2022-10-30T05:48:39;13.82;;;10.80;;
55037;SDS011;40937;53.594;10.034;2022-10-30T05:51:06;16.55;;;11.50;;
55037;SDS011;40937;53.594;10.034;2022-10-30T05:53:35;13.10;;;10.48;;
55037;SDS011;40937;53.594;10.034;2022-10-30T05:56:03;12.43;;;10.43;;
55037;SDS011;40937;53.594;10.034;2022-10-30T05:58:34;21.55;;;10.02;;
55037;SDS011;40937;53.594;10.034;2022-10-30T06:01:04;16.20;;;10.65;;
55037;SDS011;40937;53.594;10.034;2022-10-30T06:03:52;22.90;;;10.50;;
55037;SDS011;40937;53.594;10.034;2022-10-30T06:06:19;17.80;;;10.60;;
55037;SDS011;40937;53.594;10.034;2022-10-30T06:08:46;14.05;;;10.95;;
55037;SDS011;40937;53.594;10.034;2022-10-30T06:11:28;16.10;;;10.70;;
55037;SDS011;40937;53.594;10.034;2022-10-30T06:13:58;15.27;;;10.68;;
55037;SDS011;40937;53.594;10.034;2022-10-30T06:16:38;19.17;;;11.00;;
55037;SDS011;40937;53.594;10.034;2022-10-30T06:19:17;15.02;;;10.98;;
55037;SDS011;40937;53.594;10.034;2022-10-30T06:21:44;13.23;;;10.20;;
55037;SDS011;40937;53.594;10.034;2022-10-30T06:24:23;15.10;;;11.05;;
55037;SDS011;40937;53.594;10.034;2022-10-30T06:27:12;18.10;;;10.57;;
55037;SDS011;40937;53.594;10.034;2022-10-30T06:29:40;14.30;;;10.82;;
55037;SDS011;40937;53.594;10.034;2022-10-30T06:32:07;16.08;;;10.90;;
55037;SDS011;40937;53.594;10.034;2022-10-30T06:34:34;15.98;;;10.48;;
55037;SDS011;40937;53.594;10.034;2022-10-30T06:37:01;19.95;;;11.13;;
55037;SDS011;40937;53.594;10.034;2022-10-30T06:39:27;20.52;;;11.75;;
55037;SDS011;40937;53.594;10.034;2022-10-30T06:42:10;14.70;;;10.88;;
55037;SDS011;40937;53.594;10.034;2022-10-30T06:44:53;13.80;;;10.52;;
55037;SDS011;40937;53.594;10.034;2022-10-30T06:47:19;13.25;;;10.93;;
55037;SDS011;40937;53.594;10.034;2022-10-30T06:49:46;20.73;;;11.88;;
55037;SDS011;40937;53.594;10.034;2022-10-30T06:52:14;18.80;;;12.10;;
55037;SDS011;40937;53.594;10.034;2022-10-30T06:54:41;11.88;;;10.35;;
55037;SDS011;40937;53.594;10.034;2022-10-30T06:57:26;13.35;;;10.70;;
55037;SDS011;40937;53.594;10.034;2022-10-30T07:00:25;23.13;;;11.20;;
55037;SDS011;40937;53.594;10.034;2022-10-30T07:03:18;17.73;;;10.43;;
55037;SDS011;40937;53.594;10.034;2022-10-30T07:05:44;13.75;;;10.30;;
55037;SDS011;40937;53.594;10.034;2022-10-30T07:08:11;17.02;;;11.65;;
55037;SDS011;40937;53.594;10.034;2022-10-30T07:10:38;15.23;;;10.50;;
55037;SDS011;40937;53.594;10.034;2022-10-30T07:13:33;13.00;;;11.57;;
55037;SDS011;40937;53.594;10.034;2022-10-30T07:16:26;17.98;;;10.27;;
